sensor_id;sensor_type;location;lat;lon;timestamp;pressure;altitude;pressure_sealevel;temperature;humidity
55271;BME280;41132;47.162;9.470;2023-04-10T00:02:11;97009.13;;;3.31;100.00
55271;BME280;41132;47.162;9.470;2023-04-10T00:04:37;97018.53;;;3.34;100.00
55271;BME280;41132;47.162;9.470;2023-04-10T00:07:03;97002.38;;;3.29;100.00
55271;BME280;41132;47.162;9.470;2023-04-10T00:09:29;97027.41;;;3.30;100.00
55271;BME280;41132;47.162;9.470;2023-04-10T00:11:54;97011.84;;;3.30;100.00
55271;BME280;41132;47.162;9.470;2023-04-10T00:14:21;97016.84;;;3.33;100.00
55271;BME280;41132;47.162;9.470;2023-04-10T00:16:49;97014.16;;;3.34;100.00
55271;BME280;41132;47.162;9.470;2023-04-10T00:19:14;97019.19;;;3.23;100.00
55271;BME280;41132;47.162;9.470;2023-04-10T00:21:40;97025.75;;;3.29;100.00
55271;BME280;41132;47.162;9.470;2023-04-10T00:24:05;97012.81;;;3.14;100.00
55271;BME280;41132;47.162;9.470;2023-04-10T00:26:31;97006.81;;;3.14;100.00
55271;BME280;41132;47.162;9.470;2023-04-10T00:28:56;97014.09;;;3.22;100.00
55271;BME280;41132;47.162;9.470;2023-04-10T00:31:22;97014.16;;;3.34;100.00
55271;BME280;41132;47.162;9.470;2023-04-10T00:33:47;97019.97;;;3.38;100.00
55271;BME280;41132;47.162;9.470;2023-04-10T00:36:12;97012.19;;;3.38;100.00
55271;BME280;41132;47.162;9.470;2023-04-10T00:38:38;97011.66;;;3.33;100.00
55271;BME280;41132;47.162;9.470;2023-04-10T00:41:03;97013.63;;;3.29;100.00
55271;BME280;41132;47.162;9.470;2023-04-10T00:43:30;97006.97;;;3.25;100.00
55271;BME280;41132;47.162;9.470;2023-04-10T00:45:55;97008.53;;;3.28;100.00
55271;BME280;41132;47.162;9.470;2023-04-10T00:48:20;96997.91;;;3.18;100.00
55271;BME280;41132;47.162;9.470;2023-04-10T00:50:46;97014.81;;;3.24;100.00
55271;BME280;41132;47.162;9.470;2023-04-10T00:53:12;97002.38;;;3.29;100.00
55271;BME280;41132;47.162;9.470;2023-04-10T00:55:37;97000.34;;;3.34;100.00
55271;BME280;41132;47.162;9.470;2023-04-10T00:58:02;97009.59;;;3.38;100.00
55271;BME280;41132;47.162;9.470;2023-04-10T01:00:28;97000.06;;;3.39;100.00
55271;BME280;41132;47.162;9.470;2023-04-10T01:02:53;97003.56;;;3.38;100.00
55271;BME280;41132;47.162;9.470;2023-04-10T01:05:20;96996.91;;;3.33;100.00
55271;BME280;41132;47.162;9.470;2023-04-10T01:08:07;96999.19;;;3.38;100.00
55271;BME280;41132;47.162;9.470;2023-04-10T01:10:47;96993.94;;;3.40;100.00
55271;BME280;41132;47.162;9.470;2023-04-10T01:13:33;97000.06;;;3.39;100.00
55271;BME280;41132;47.162;9.470;2023-04-10T01:16:04;96995.25;;;3.32;100.00
55271;BME280;41132;47.162;9.470;2023-04-10T01:18:41;96989.53;;;3.27;100.00
55271;BME280;41132;47.162;9.470;2023-04-10T01:21:10;96987.13;;;3.24;100.00
55271;BME280;41132;47.162;9.470;2023-04-10T01:24:06;96987.03;;;3.26;100.00
55271;BME280;41132;47.162;9.470;2023-04-10T01:29:20;96984.88;;;3.32;100.00
55271;BME280;41132;47.162;9.470;2023-04-10T01:31:53;96981.94;;;3.24;100.00
55271;BME280;41132;47.162;9.470;2023-04-10T01:34:24;96985.16;;;3.28;100.00
55271;BME280;41132;47.162;9.470;2023-04-10T01:36:54;96988.28;;;3.33;100.00
55271;BME280;41132;47.162;9.470;2023-04-10T01:39:21;96981.75;;;3.27;100.00
55271;BME280;41132;47.162;9.470;2023-04-10T01:41:51;96980.72;;;3.30;100.00
55271;BME280;41132;47.162;9.470;2023-04-10T01:44:18;96981.78;;;3.40;100.00
55271;BME280;41132;47.162;9.470;2023-04-10T01:46:45;96976.78;;;3.37;100.00
55271;BME280;41132;47.162;9.470;2023-04-10T01:49:11;96987.47;;;3.32;100.00
55271;BME280;41132;47.162;9.470;2023-04-10T01:51:38;96980.72;;;3.30;100.00
55271;BME280;41132;47.162;9.470;2023-04-10T01:54:04;96980.28;;;3.23;100.00
55271;BME280;41132;47.162;9.470;2023-04-10T01:56:30;96991.69;;;3.21;100.00
55271;BME280;41132;47.162;9.470;2023-04-10T01:58:57;96981.75;;;3.27;100.00
55271;BME280;41132;47.162;9.470;2023-04-10T02:01:23;96980.38;;;3.22;100.00
55271;BME280;41132;47.162;9.470;2023-04-10T02:03:48;96981.63;;;3.29;100.00
55271;BME280;41132;47.162;9.470;2023-04-10T02:08:50;96982.00;;;3.10;100.00
55271;BME280;41132;47.162;9.470;2023-04-10T02:11:46;96990.22;;;3.17;100.00
55271;BME280;41132;47.162;9.470;2023-04-10T02:14:16;96986.81;;;3.02;100.00
55271;BME280;41132;47.162;9.470;2023-04-10T02:16:43;96994.13;;;3.09;100.00
55271;BME280;41132;47.162;9.470;2023-04-10T02:19:09;96993.56;;;3.04;100.00
55271;BME280;41132;47.162;9.470;2023-04-10T02:21:35;96993.78;;;3.01;100.00
55271;BME280;41132;47.162;9.470;2023-04-10T02:24:01;97007.31;;;2.92;100.00
55271;BME280;41132;47.162;9.470;2023-04-10T02:26:27;96975.97;;;2.82;100.00
55271;BME280;41132;47.162;9.470;2023-04-10T02:28:52;96991.13;;;2.88;100.00
55271;BME280;41132;47.162;9.470;2023-04-10T02:31:18;96996.31;;;2.88;100.00
55271;BME280;41132;47.162;9.470;2023-04-10T02:33:43;96977.06;;;2.78;100.00
55271;BME280;41132;47.162;9.470;2023-04-10T02:36:08;96991.13;;;2.88;100.00
55271;BME280;41132;47.162;9.470;2023-04-10T02:38:34;96995.91;;;2.95;100.00
55271;BME280;41132;47.162;9.470;2023-04-10T02:40:59;96999.53;;;2.92;100.00
55271;BME280;41132;47.162;9.470;2023-04-10T02:43:25;96991.19;;;3.01;100.00
55271;BME280;41132;47.162;9.470;2023-04-10T02:45:50;96992.75;;;3.04;100.00
55271;BME280;41132;47.162;9.470;2023-04-10T02:48:16;96991.13;;;2.88;100.00
55271;BME280;41132;47.162;9.470;2023-04-10T02:50:41;97000.84;;;2.85;100.00
55271;BME280;41132;47.162;9.470;2023-04-10T02:53:12;96994.41;;;2.78;100.00
55271;BME280;41132;47.162;9.470;2023-04-10T02:55:37;96991.69;;;2.79;100.00
55271;BME280;41132;47.162;9.470;2023-04-10T02:58:03;97002.13;;;2.92;100.00
55271;BME280;41132;47.162;9.470;2023-04-10T03:00:28;97000.47;;;2.91;100.00
55271;BME280;41132;47.162;9.470;2023-04-10T03:02:54;97006.13;;;2.83;100.00
55271;BME280;41132;47.162;9.470;2023-04-10T03:05:19;96996.78;;;2.81;100.00
55271;BME280;41132;47.162;9.470;2023-04-10T03:07:44;96976.63;;;2.71;100.00
55271;BME280;41132;47.162;9.470;2023-04-10T03:10:10;96972.75;;;2.64;100.00
55271;BME280;41132;47.162;9.470;2023-04-10T03:12:36;96984.75;;;2.80;100.00
55271;BME280;41132;47.162;9.470;2023-04-10T03:15:01;96977.72;;;2.67;100.00
55271;BME280;41132;47.162;9.470;2023-04-10T03:17:27;96983.75;;;2.82;100.00
55271;BME280;41132;47.162;9.470;2023-04-10T03:19:52;96993.06;;;2.85;100.00
55271;BME280;41132;47.162;9.470;2023-04-10T03:22:17;96988.38;;;2.77;100.00
55271;BME280;41132;47.162;9.470;2023-04-10T03:24:43;96990.31;;;2.74;100.00
55271;BME280;41132;47.162;9.470;2023-04-10T03:27:08;96997.72;;;2.80;100.00
55271;BME280;41132;47.162;9.470;2023-04-10T03:29:34;96993.00;;;2.72;100.00
55271;BME280;41132;47.162;9.470;2023-04-10T03:31:59;96997.44;;;2.84;100.00
55271;BME280;41132;47.162;9.470;2023-04-10T03:34:24;96992.91;;;2.74;100.00
55271;BME280;41132;47.162;9.470;2023-04-10T03:36:50;97005.13;;;2.71;100.00
55271;BME280;41132;47.162;9.470;2023-04-10T03:39:15;96992.94;;;2.59;100.00
55271;BME280;41132;47.162;9.470;2023-04-10T03:41:40;96979.59;;;2.51;100.00
55271;BME280;41132;47.162;9.470;2023-04-10T03:44:06;96996.97;;;2.63;100.00
55271;BME280;41132;47.162;9.470;2023-04-10T03:46:31;96991.19;;;2.60;100.00
55271;BME280;41132;47.162;9.470;2023-04-10T03:48:56;96972.94;;;2.61;100.00
55271;BME280;41132;47.162;9.470;2023-04-10T03:51:22;96984.31;;;2.59;100.00
55271;BME280;41132;47.162;9.470;2023-04-10T03:53:48;96999.22;;;2.69;100.00
55271;BME280;41132;47.162;9.470;2023-04-10T03:56:15;97003.47;;;2.70;100.00
55271;BME280;41132;47.162;9.470;2023-04-10T03:58:40;97003.38;;;2.72;100.00
55271;BME280;41132;47.162;9.470;2023-04-10T04:01:05;97001.44;;;2.76;100.00
55271;BME280;41132;47.162;9.470;2023-04-10T04:03:31;97006.16;;;2.69;100.00
55271;BME280;41132;47.162;9.470;2023-04-10T04:05:57;96996.97;;;2.63;100.00
55271;BME280;41132;47.162;9.470;2023-04-10T04:08:22;97002.25;;;2.76;100.00
55271;BME280;41132;47.162;9.470;2023-04-10T04:10:47;97004.38;;;2.69;100.00
55271;BME280;41132;47.162;9.470;2023-04-10T04:13:13;96991.19;;;2.60;100.00
55271;BME280;41132;47.162;9.470;2023-04-10T04:15:38;97006.63;;;2.61;100.00
55271;BME280;41132;47.162;9.470;2023-04-10T04:18:04;97009.50;;;2.57;100.00
55271;BME280;41132;47.162;9.470;2023-04-10T04:20:29;97009.13;;;2.48;100.00
55271;BME280;41132;47.162;9.470;2023-04-10T04:22:54;97012.91;;;2.43;100.00
55271;BME280;41132;47.162;9.470;2023-04-10T04:25:20;97017.28;;;2.42;100.00
55271;BME280;41132;47.162;9.470;2023-04-10T04:27:45;97021.63;;;2.42;100.00
55271;BME280;41132;47.162;9.470;2023-04-10T04:30:11;97029.75;;;2.36;100.00
55271;BME280;41132;47.162;9.470;2023-04-10T04:32:36;97024.03;;;2.45;100.00
55271;BME280;41132;47.162;9.470;2023-04-10T04:35:02;97012.72;;;2.32;100.00
55271;BME280;41132;47.162;9.470;2023-04-10T04:37:27;97027.56;;;2.44;100.00
55271;BME280;41132;47.162;9.470;2023-04-10T04:39:52;97025.78;;;2.44;100.00
55271;BME280;41132;47.162;9.470;2023-04-10T04:42:18;97036.22;;;2.43;100.00
55271;BME280;41132;47.162;9.470;2023-04-10T04:44:43;97013.66;;;2.45;100.00
55271;BME280;41132;47.162;9.470;2023-04-10T04:47:09;97016.25;;;2.45;100.00
55271;BME280;41132;47.162;9.470;2023-04-10T04:49:34;97029.97;;;2.61;100.00
55271;BME280;41132;47.162;9.470;2023-04-10T04:51:59;97026.97;;;2.67;100.00
55271;BME280;41132;47.162;9.470;2023-04-10T04:54:25;97024.22;;;2.70;100.00
55271;BME280;41132;47.162;9.470;2023-04-10T04:56:50;97016.97;;;2.76;100.00
55271;BME280;41132;47.162;9.470;2023-04-10T04:59:15;97024.28;;;2.83;100.00
55271;BME280;41132;47.162;9.470;2023-04-10T05:01:41;97005.97;;;2.72;100.00
55271;BME280;41132;47.162;9.470;2023-04-10T05:04:06;97025.84;;;2.86;100.00
55271;BME280;41132;47.162;9.470;2023-04-10T05:06:31;97003.72;;;2.80;100.00
55271;BME280;41132;47.162;9.470;2023-04-10T05:08:57;97033.66;;;3.13;100.00
55271;BME280;41132;47.162;9.470;2023-04-10T05:11:22;97028.47;;;3.13;100.00
55271;BME280;41132;47.162;9.470;2023-04-10T05:13:48;97023.28;;;3.13;100.00
55271;BME280;41132;47.162;9.470;2023-04-10T05:16:13;97024.56;;;3.20;100.00
55271;BME280;41132;47.162;9.470;2023-04-10T05:18:39;97023.25;;;3.27;100.00
55271;BME280;41132;47.162;9.470;2023-04-10T05:21:05;97019.13;;;3.38;100.00
55271;BME280;41132;47.162;9.470;2023-04-10T05:23:31;97015.34;;;3.43;100.00
55271;BME280;41132;47.162;9.470;2023-04-10T05:25:56;97028.75;;;3.50;100.00
55271;BME280;41132;47.162;9.470;2023-04-10T05:28:21;96993.84;;;3.41;100.00
55271;BME280;41132;47.162;9.470;2023-04-10T05:30:47;97027.34;;;3.71;100.00
55271;BME280;41132;47.162;9.470;2023-04-10T05:33:12;97008.16;;;3.47;100.00
55271;BME280;41132;47.162;9.470;2023-04-10T05:35:38;97019.97;;;3.78;100.00
55271;BME280;41132;47.162;9.470;2023-04-10T05:38:03;97026.94;;;3.90;100.00
55271;BME280;41132;47.162;9.470;2023-04-10T05:40:28;97029.38;;;4.06;100.00
55271;BME280;41132;47.162;9.470;2023-04-10T05:42:54;97026.16;;;4.15;100.00
55271;BME280;41132;47.162;9.470;2023-04-10T05:45:19;97027.22;;;4.26;100.00
55271;BME280;41132;47.162;9.470;2023-04-10T05:47:45;97020.66;;;4.33;100.00
55271;BME280;41132;47.162;9.470;2023-04-10T05:50:10;97031.88;;;4.46;100.00
55271;BME280;41132;47.162;9.470;2023-04-10T05:52:35;97031.47;;;4.52;100.00
55271;BME280;41132;47.162;9.470;2023-04-10T05:55:01;97031.97;;;4.70;100.00
55271;BME280;41132;47.162;9.470;2023-04-10T05:57:28;97025.28;;;4.79;100.00
55271;BME280;41132;47.162;9.470;2023-04-10T05:59:53;97014.63;;;4.95;100.00
55271;BME280;41132;47.162;9.470;2023-04-10T06:02:18;97030.00;;;5.11;100.00
55271;BME280;41132;47.162;9.470;2023-04-10T06:04:44;97024.84;;;5.22;100.00
55271;BME280;41132;47.162;9.470;2023-04-10T06:07:10;97031.66;;;5.36;100.00
55271;BME280;41132;47.162;9.470;2023-04-10T06:09:35;97029.94;;;5.72;100.00
55271;BME280;41132;47.162;9.470;2023-04-10T06:12:01;97029.78;;;6.21;94.05
55271;BME280;41132;47.162;9.470;2023-04-10T06:14:26;97024.97;;;6.84;87.24
55271;BME280;41132;47.162;9.470;2023-04-10T06:16:51;97030.88;;;7.20;74.13
55271;BME280;41132;47.162;9.470;2023-04-10T06:19:17;97034.69;;;7.48;70.76
55271;BME280;41132;47.162;9.470;2023-04-10T06:21:42;97033.78;;;8.24;67.44
55271;BME280;41132;47.162;9.470;2023-04-10T06:24:07;97034.47;;;8.68;66.46
55271;BME280;41132;47.162;9.470;2023-04-10T06:26:33;97030.50;;;9.14;65.11
55271;BME280;41132;47.162;9.470;2023-04-10T06:28:58;97030.59;;;9.43;58.90
55271;BME280;41132;47.162;9.470;2023-04-10T06:31:24;97033.78;;;9.66;56.48
55271;BME280;41132;47.162;9.470;2023-04-10T06:33:49;97018.56;;;10.48;54.94
55271;BME280;41132;47.162;9.470;2023-04-10T06:36:15;97033.56;;;11.02;51.80
55271;BME280;41132;47.162;9.470;2023-04-10T06:38:41;97021.91;;;11.33;50.61
55271;BME280;41132;47.162;9.470;2023-04-10T06:41:06;97028.72;;;12.25;48.56
55271;BME280;41132;47.162;9.470;2023-04-10T06:43:37;97030.28;;;14.30;43.16
55271;BME280;41132;47.162;9.470;2023-04-10T06:46:03;97006.72;;;15.72;40.74
55271;BME280;41132;47.162;9.470;2023-04-10T06:48:32;97013.63;;;17.46;36.80
55271;BME280;41132;47.162;9.470;2023-04-10T06:50:57;97008.28;;;17.97;36.26
55271;BME280;41132;47.162;9.470;2023-04-10T06:53:26;96992.19;;;18.05;35.63
55271;BME280;41132;47.162;9.470;2023-04-10T06:55:51;97004.53;;;19.39;31.75
55271;BME280;41132;47.162;9.470;2023-04-10T06:58:24;97009.56;;;19.20;32.97
55271;BME280;41132;47.162;9.470;2023-04-10T07:44:48;96969.75;;;22.29;29.07
55271;BME280;41132;47.162;9.470;2023-04-10T07:47:13;96956.81;;;23.92;27.52
55271;BME280;41132;47.162;9.470;2023-04-10T07:49:39;96966.06;;;23.77;24.21
55271;BME280;41132;47.162;9.470;2023-04-10T07:52:04;96959.22;;;23.63;26.10
55271;BME280;41132;47.162;9.470;2023-04-10T07:54:31;96966.25;;;22.54;26.74
55271;BME280;41132;47.162;9.470;2023-04-10T07:56:58;96946.09;;;23.13;24.10
55271;BME280;41132;47.162;9.470;2023-04-10T07:59:23;96956.94;;;23.18;25.66
55271;BME280;41132;47.162;9.470;2023-04-10T08:01:48;96952.38;;;25.27;23.23
55271;BME280;41132;47.162;9.470;2023-04-10T08:04:14;96952.75;;;25.59;23.84
55271;BME280;41132;47.162;9.470;2023-04-10T08:06:39;96958.19;;;24.72;22.98
55271;BME280;41132;47.162;9.470;2023-04-10T08:09:04;96951.69;;;25.20;22.59
55271;BME280;41132;47.162;9.470;2023-04-10T08:11:32;96952.31;;;24.87;22.53
55271;BME280;41132;47.162;9.470;2023-04-10T08:13:59;96946.97;;;24.75;23.48
55271;BME280;41132;47.162;9.470;2023-04-10T08:16:32;96941.34;;;26.65;23.01
55271;BME280;41132;47.162;9.470;2023-04-10T08:18:59;96933.84;;;27.28;22.51
55271;BME280;41132;47.162;9.470;2023-04-10T08:21:25;96939.28;;;29.53;18.63
55271;BME280;41132;47.162;9.470;2023-04-10T08:23:56;96946.78;;;29.41;19.09
55271;BME280;41132;47.162;9.470;2023-04-10T08:26:24;96939.63;;;29.97;17.60
55271;BME280;41132;47.162;9.470;2023-04-10T08:28:51;96936.28;;;28.44;18.07
55271;BME280;41132;47.162;9.470;2023-04-10T08:31:18;96943.13;;;28.57;17.94
55271;BME280;41132;47.162;9.470;2023-04-10T08:33:43;96944.38;;;29.39;18.06
55271;BME280;41132;47.162;9.470;2023-04-10T08:36:09;96936.94;;;28.61;18.35
55271;BME280;41132;47.162;9.470;2023-04-10T08:38:36;96930.59;;;28.83;18.49
55271;BME280;41132;47.162;9.470;2023-04-10T08:41:02;96919.56;;;27.28;19.72
55271;BME280;41132;47.162;9.470;2023-04-10T08:43:27;96932.91;;;30.21;17.01
55271;BME280;41132;47.162;9.470;2023-04-10T08:45:54;96942.06;;;30.91;18.78
55271;BME280;41132;47.162;9.470;2023-04-10T08:48:20;96945.75;;;31.11;17.67
55271;BME280;41132;47.162;9.470;2023-04-10T08:50:46;96926.50;;;31.72;16.39
55271;BME280;41132;47.162;9.470;2023-04-10T08:53:14;96930.97;;;30.62;18.86
55271;BME280;41132;47.162;9.470;2023-04-10T08:55:40;96929.03;;;30.83;16.52
55271;BME280;41132;47.162;9.470;2023-04-10T08:58:07;96928.59;;;29.15;17.35
55271;BME280;41132;47.162;9.470;2023-04-10T09:00:33;96912.06;;;31.32;17.79
55271;BME280;41132;47.162;9.470;2023-04-10T09:03:00;96913.03;;;29.48;17.41
55271;BME280;41132;47.162;9.470;2023-04-10T09:05:29;96921.00;;;30.37;16.61
55271;BME280;41132;47.162;9.470;2023-04-10T09:07:54;96905.03;;;29.89;19.07
55271;BME280;41132;47.162;9.470;2023-04-10T09:10:20;96907.63;;;31.52;16.37
55271;BME280;41132;47.162;9.470;2023-04-10T09:12:48;96915.03;;;30.09;17.22
55271;BME280;41132;47.162;9.470;2023-04-10T09:15:14;96906.66;;;30.01;19.84
55271;BME280;41132;47.162;9.470;2023-04-10T09:18:01;96913.69;;;29.96;18.22
55271;BME280;41132;47.162;9.470;2023-04-10T09:20:30;96903.91;;;29.75;17.31
55271;BME280;41132;47.162;9.470;2023-04-10T09:22:59;96895.38;;;28.62;18.44
55271;BME280;41132;47.162;9.470;2023-04-10T09:25:31;96900.69;;;30.04;17.64
55271;BME280;41132;47.162;9.470;2023-04-10T09:28:00;96898.19;;;29.51;18.48
55271;BME280;41132;47.162;9.470;2023-04-10T09:30:41;96890.41;;;30.01;17.93
55271;BME280;41132;47.162;9.470;2023-04-10T09:33:26;96887.38;;;30.58;18.95
55271;BME280;41132;47.162;9.470;2023-04-10T09:35:53;96888.38;;;29.24;17.59
55271;BME280;41132;47.162;9.470;2023-04-10T09:38:21;96896.81;;;30.87;17.17
55271;BME280;41132;47.162;9.470;2023-04-10T09:40:47;96882.97;;;30.83;15.91
55271;BME280;41132;47.162;9.470;2023-04-10T09:45:52;96877.13;;;30.50;16.77
55271;BME280;41132;47.162;9.470;2023-04-10T09:48:19;96878.66;;;28.70;18.61
55271;BME280;41132;47.162;9.470;2023-04-10T09:50:45;96876.06;;;28.01;20.43
55271;BME280;41132;47.162;9.470;2023-04-10T09:53:13;96878.97;;;29.42;18.57
55271;BME280;41132;47.162;9.470;2023-04-10T09:55:39;96869.28;;;29.62;21.20
55271;BME280;41132;47.162;9.470;2023-04-10T09:58:05;96871.41;;;29.65;20.47
55271;BME280;41132;47.162;9.470;2023-04-10T10:00:40;96872.59;;;32.29;14.95
55271;BME280;41132;47.162;9.470;2023-04-10T10:03:11;96854.97;;;31.92;17.85
55271;BME280;41132;47.162;9.470;2023-04-10T10:05:42;96839.13;;;32.87;14.76
55271;BME280;41132;47.162;9.470;2023-04-10T10:08:12;96838.94;;;30.47;15.59
55271;BME280;41132;47.162;9.470;2023-04-10T10:10:50;96849.22;;;30.50;17.29
55271;BME280;41132;47.162;9.470;2023-04-10T10:13:30;96845.97;;;31.23;15.57
55271;BME280;41132;47.162;9.470;2023-04-10T10:16:12;96837.09;;;29.91;19.43
55271;BME280;41132;47.162;9.470;2023-04-10T10:18:47;96831.34;;;32.27;18.65
55271;BME280;41132;47.162;9.470;2023-04-10T10:21:17;96827.75;;;31.29;18.19
55271;BME280;41132;47.162;9.470;2023-04-10T10:23:46;96832.69;;;30.62;20.19
55271;BME280;41132;47.162;9.470;2023-04-10T10:26:13;96810.94;;;31.32;17.07
55271;BME280;41132;47.162;9.470;2023-04-10T10:28:39;96798.81;;;32.51;14.50
55271;BME280;41132;47.162;9.470;2023-04-10T10:31:06;96808.84;;;31.92;15.46
55271;BME280;41132;47.162;9.470;2023-04-10T10:33:34;96805.97;;;30.19;16.13
55271;BME280;41132;47.162;9.470;2023-04-10T10:36:02;96785.97;;;29.33;17.67
55271;BME280;41132;47.162;9.470;2023-04-10T10:38:30;96798.41;;;28.50;20.36
55271;BME280;41132;47.162;9.470;2023-04-10T10:41:00;96797.91;;;29.78;17.95
55271;BME280;41132;47.162;9.470;2023-04-10T10:44:00;96803.59;;;28.15;20.55
55271;BME280;41132;47.162;9.470;2023-04-10T10:49:20;96784.31;;;29.27;19.49
55271;BME280;41132;47.162;9.470;2023-04-10T10:51:50;96777.56;;;30.01;18.49
55271;BME280;41132;47.162;9.470;2023-04-10T10:54:28;96781.84;;;30.38;18.71
55271;BME280;41132;47.162;9.470;2023-04-10T10:56:54;96759.38;;;30.27;17.84
55271;BME280;41132;47.162;9.470;2023-04-10T10:59:52;96755.22;;;30.60;16.06
55271;BME280;41132;47.162;9.470;2023-04-10T11:02:18;96755.16;;;29.80;16.09
55271;BME280;41132;47.162;9.470;2023-04-10T11:04:48;96760.53;;;28.40;21.23
55271;BME280;41132;47.162;9.470;2023-04-10T11:07:15;96748.84;;;27.82;20.72
55271;BME280;41132;47.162;9.470;2023-04-10T11:17:55;96746.28;;;21.59;27.46
55271;BME280;41132;47.162;9.470;2023-04-10T11:20:21;96745.59;;;20.30;25.97
55271;BME280;41132;47.162;9.470;2023-04-10T11:23:10;96732.06;;;19.67;33.94
55271;BME280;41132;47.162;9.470;2023-04-10T11:25:50;96725.28;;;19.71;33.26
55271;BME280;41132;47.162;9.470;2023-04-10T11:39:05;96728.47;;;20.13;29.90
55271;BME280;41132;47.162;9.470;2023-04-10T11:41:37;96719.56;;;20.32;27.08
55271;BME280;41132;47.162;9.470;2023-04-10T11:44:05;96708.72;;;19.55;29.27
55271;BME280;41132;47.162;9.470;2023-04-10T12:53:01;96671.28;;;17.67;31.74
55271;BME280;41132;47.162;9.470;2023-04-10T14:00:52;96602.28;;;17.67;32.58
55271;BME280;41132;47.162;9.470;2023-04-10T14:03:17;96613.97;;;17.80;31.95
55271;BME280;41132;47.162;9.470;2023-04-10T14:05:42;96608.31;;;17.83;31.82
55271;BME280;41132;47.162;9.470;2023-04-10T14:08:09;96613.28;;;18.06;31.67
55271;BME280;41132;47.162;9.470;2023-04-10T14:10:38;96608.22;;;18.24;31.10
55271;BME280;41132;47.162;9.470;2023-04-10T14:13:05;96605.16;;;18.34;30.86
55271;BME280;41132;47.162;9.470;2023-04-10T14:15:31;96601.88;;;18.39;31.61
55271;BME280;41132;47.162;9.470;2023-04-10T14:17:56;96593.13;;;18.51;31.27
55271;BME280;41132;47.162;9.470;2023-04-10T14:20:22;96589.25;;;18.54;31.72
55271;BME280;41132;47.162;9.470;2023-04-10T14:22:48;96580.03;;;18.63;30.35
55271;BME280;41132;47.162;9.470;2023-04-10T14:25:13;96595.78;;;18.65;31.72
55271;BME280;41132;47.162;9.470;2023-04-10T14:27:41;96590.47;;;18.85;30.80
55271;BME280;41132;47.162;9.470;2023-04-10T14:30:07;96602.56;;;18.87;31.44
55271;BME280;41132;47.162;9.470;2023-04-10T14:35:09;96588.84;;;18.90;33.20
55271;BME280;41132;47.162;9.470;2023-04-10T14:37:34;96585.16;;;18.71;31.68
55271;BME280;41132;47.162;9.470;2023-04-10T14:40:00;96589.69;;;18.77;32.30
55271;BME280;41132;47.162;9.470;2023-04-10T14:42:25;96586.41;;;18.89;32.64
55271;BME280;41132;47.162;9.470;2023-04-10T14:44:51;96592.31;;;18.91;33.19
55271;BME280;41132;47.162;9.470;2023-04-10T14:47:17;96588.44;;;18.80;33.07
55271;BME280;41132;47.162;9.470;2023-04-10T14:49:42;96589.84;;;19.03;32.97
55271;BME280;41132;47.162;9.470;2023-04-10T14:52:07;96593.13;;;18.91;31.96
55271;BME280;41132;47.162;9.470;2023-04-10T14:54:33;96589.44;;;18.72;32.63
55271;BME280;41132;47.162;9.470;2023-04-10T14:56:58;96582.09;;;18.68;33.29
55271;BME280;41132;47.162;9.470;2023-04-10T14:59:24;96604.97;;;18.69;33.44
55271;BME280;41132;47.162;9.470;2023-04-10T15:01:49;96590.66;;;18.56;33.61
55271;BME280;41132;47.162;9.470;2023-04-10T15:04:15;96566.75;;;18.63;33.95
55271;BME280;41132;47.162;9.470;2023-04-10T15:06:41;96585.16;;;18.71;32.93
55271;BME280;41132;47.162;9.470;2023-04-10T15:09:06;96579.00;;;18.71;33.06
55271;BME280;41132;47.162;9.470;2023-04-10T15:11:32;96575.13;;;18.73;32.51
55271;BME280;41132;47.162;9.470;2023-04-10T15:13:58;96574.53;;;18.51;33.09
55271;BME280;41132;47.162;9.470;2023-04-10T15:16:24;96578.19;;;18.50;33.64
55271;BME280;41132;47.162;9.470;2023-04-10T15:18:49;96586.56;;;18.41;34.33
55271;BME280;41132;47.162;9.470;2023-04-10T15:21:15;96544.22;;;18.26;35.08
55271;BME280;41132;47.162;9.470;2023-04-10T15:23:41;96569.78;;;18.27;34.62
55271;BME280;41132;47.162;9.470;2023-04-10T15:26:13;96568.56;;;18.29;33.86
55271;BME280;41132;47.162;9.470;2023-04-10T15:28:40;96570.97;;;17.98;34.27
55271;BME280;41132;47.162;9.470;2023-04-10T15:31:06;96567.00;;;17.80;34.22
55271;BME280;41132;47.162;9.470;2023-04-10T15:33:31;96574.66;;;17.97;34.57
55271;BME280;41132;47.162;9.470;2023-04-10T15:35:57;96574.53;;;17.77;34.94
55271;BME280;41132;47.162;9.470;2023-04-10T15:38:22;96562.47;;;17.67;35.38
55271;BME280;41132;47.162;9.470;2023-04-10T15:40:50;96573.47;;;17.64;35.32
55271;BME280;41132;47.162;9.470;2023-04-10T15:43:16;96583.28;;;17.70;35.17
55271;BME280;41132;47.162;9.470;2023-04-10T15:45:43;96583.47;;;17.62;35.72
55271;BME280;41132;47.162;9.470;2023-04-10T15:48:08;96580.19;;;17.53;35.84
55271;BME280;41132;47.162;9.470;2023-04-10T15:50:35;96583.81;;;17.52;35.69
55271;BME280;41132;47.162;9.470;2023-04-10T15:53:01;96571.31;;;17.33;36.19
55271;BME280;41132;47.162;9.470;2023-04-10T15:55:26;96581.63;;;17.21;36.22
55271;BME280;41132;47.162;9.470;2023-04-10T16:05:37;96571.69;;;16.95;36.79
55271;BME280;41132;47.162;9.470;2023-04-10T16:08:02;96583.44;;;16.86;38.49
55271;BME280;41132;47.162;9.470;2023-04-10T16:10:28;96578.34;;;16.63;40.09
55271;BME280;41132;47.162;9.470;2023-04-10T16:12:54;96576.47;;;16.57;39.07
55271;BME280;41132;47.162;9.470;2023-04-10T16:15:20;96585.03;;;16.59;40.21
55271;BME280;41132;47.162;9.470;2023-04-10T16:17:46;96580.31;;;16.54;40.77
55271;BME280;41132;47.162;9.470;2023-04-10T16:20:11;96585.09;;;16.44;40.76
55271;BME280;41132;47.162;9.470;2023-04-10T16:22:37;96581.53;;;16.30;41.61
55271;BME280;41132;47.162;9.470;2023-04-10T16:25:02;96567.34;;;15.95;41.82
55271;BME280;41132;47.162;9.470;2023-04-10T16:27:28;96578.63;;;16.03;41.20
55271;BME280;41132;47.162;9.470;2023-04-10T16:29:53;96581.47;;;16.02;41.39
55271;BME280;41132;47.162;9.470;2023-04-10T16:32:19;96574.41;;;15.88;42.48
55271;BME280;41132;47.162;9.470;2023-04-10T16:34:45;96571.53;;;15.89;42.38
55271;BME280;41132;47.162;9.470;2023-04-10T16:37:11;96581.41;;;15.80;42.09